Latest Weather Observations for Mandurah

IDW60801

Issued at 11:54 am WST Monday 8 March 2021 (issued every 10 minutes, with the page automatically refreshed every 10 minutes)

About weather observations | Map of weather stations | Latest weather observations for WA | Other Formats
Station Details ID: 009977 Name: MANDURAH Lat: -32.52 Lon: 115.71 Height: 3.0 m
Data from the previous 72 hours. | See also: Recent months at Mandurah
Date/Time
WST
Temp
°C
App
Temp
°C
Dew
Point
°C
Rel
Hum
%
Delta-T
°C
Wind Press
QNH
hPa
Press
MSL
hPa
Rain since
9am
mm
Dir  Spd
km/h
Gust
km/h
Spd
kts
Gust
kts
08/11:30am 25.4 24.3 16.3 57 5.6 E 17 26 9 14 1014.6 1014.6 0.0
08/11:00am 25.5 24.7 16.1 56 5.7 E 15 28 8 15 1015.3 1015.3 0.0
08/10:30am 25.1 23.9 16.0 57 5.5 E 17 28 9 15 1015.5 1015.5 0.0
08/10:00am 24.5 24.1 16.2 60 5.1 E 13 22 7 12 1015.9 1015.9 0.0
08/09:30am 23.5 23.0 15.8 62 4.6 ESE 13 24 7 13 1015.9 1015.9 0.0
08/09:00am 23.1 22.6 15.9 64 4.3 E 13 20 7 11 1016.1 1016.1 0.0
08/08:30am 22.4 22.3 16.0 67 3.9 ESE 11 19 6 10 1016.1 1016.1 0.0
08/08:00am 21.4 20.1 15.7 70 3.4 ESE 17 26 9 14 1016.0 1016.0 0.0
08/07:30am 20.7 20.5 15.7 73 3.0 ESE 11 19 6 10 1015.8 1015.8 0.0
08/07:00am 20.4 20.2 15.8 75 2.7 SE 11 19 6 10 1015.8 1015.8 0.0
08/06:30am 20.4 19.8 15.6 74 2.9 ESE 13 20 7 11 1015.4 1015.4 0.0
08/06:00am 20.4 20.2 15.6 74 2.8 ESE 11 19 6 10 1015.1 1015.1 0.0
08/05:30am 20.4 19.7 15.4 73 3.0 ESE 13 24 7 13 1014.5 1014.5 0.0
08/05:00am 20.6 19.6 15.6 73 3.0 ESE 15 22 8 12 1014.4 1014.4 0.0
08/04:30am 20.7 19.4 15.7 73 3.0 ESE 17 28 9 15 1014.3 1014.3 0.0
08/04:00am 20.8 20.6 15.8 73 3.0 SE 11 19 6 10 1014.3 1014.3 0.0
08/03:30am 21.0 20.1 15.8 72 3.1 ESE 15 22 8 12 1013.8 1013.8 0.0
08/03:00am 21.4 20.1 15.9 71 3.3 SE 17 24 9 13 1014.0 1014.0 0.0
08/02:30am 21.8 20.9 15.9 69 3.5 ESE 15 28 8 15 1013.8 1013.8 0.0
08/02:00am 22.2 21.4 16.0 68 3.7 ESE 15 22 8 12 1013.1 1013.1 0.0
08/01:30am 22.6 21.7 15.9 66 4.0 SE 15 24 8 13 1013.9 1013.9 0.0
08/01:00am 22.9 22.3 15.7 64 4.3 ESE 13 20 7 11 1014.1 1014.1 0.0
08/12:30am 23.1 22.1 15.7 63 4.5 ESE 15 22 8 12 1013.8 1013.8 0.0
08/12:00am 23.4 22.7 15.5 61 4.7 ESE 13 20 7 11 1014.1 1014.1 0.0
 
Date/Time
WST
Temp
°C
App
Temp
°C
Dew
Point
°C
Rel
Hum
%
Delta-T
°C
Wind Press
QNH
hPa
Press
MSL
hPa
Rain since
9am
mm
Dir  Spd
km/h
Gust
km/h
Spd
kts
Gust
kts
07/11:30pm 23.8 23.6 15.6 60 4.9 SE 11 15 6 8 1014.4 1014.4 0.0
07/11:00pm 24.2 24.3 15.4 58 5.3 SE 9 15 5 8 1014.4 1014.4 0.0
07/10:30pm 24.3 25.1 16.3 61 4.9 SE 7 13 4 7 1014.2 1014.2 0.0
07/10:00pm 24.8 26.0 16.8 61 4.9 SSE 6 9 3 5 1014.6 1014.6 0.0
07/09:30pm 25.1 25.8 16.0 57 5.5 SSE 7 11 4 6 1014.9 1014.9 0.0
07/09:00pm 25.1 25.8 16.0 57 5.5 SE 7 9 4 5 1014.6 1014.6 0.0
07/08:30pm 25.3 25.8 15.6 55 5.9 SE 7 13 4 7 1014.5 1014.5 0.0
07/08:00pm 25.6 25.7 15.6 54 6.1 SSE 9 13 5 7 1014.4 1014.4 0.0
07/07:30pm 25.7 26.4 16.0 55 5.9 SE 7 11 4 6 1014.2 1014.2 0.0
07/07:00pm 25.9 26.6 16.2 55 5.9 ESE 7 13 4 7 1014.0 1014.0 0.0
07/06:30pm 26.4 26.2 15.8 52 6.5 ESE 11 19 6 10 1013.6 1013.6 0.0
07/06:00pm 26.9 26.8 15.9 51 6.7 ESE 11 20 6 11 1013.3 1013.3 0.0
07/05:30pm 27.4 26.6 16.1 50 7.0 ESE 15 24 8 13 1012.8 1012.8 0.0
07/05:00pm 28.1 27.7 16.1 48 7.4 ESE 13 24 7 13 1012.5 1012.5 0.0
07/04:30pm 28.3 27.1 16.2 47 7.5 SE 17 26 9 14 1012.5 1012.5 0.0
07/04:00pm 28.4 28.0 16.3 47 7.5 SE 13 19 7 10 1012.4 1012.4 0.0
07/03:30pm 28.0 27.4 16.6 50 7.1 SSE 15 20 8 11 1012.5 1012.5 0.0
07/03:00pm 28.0 27.9 16.9 51 6.9 S 13 19 7 10 1012.8 1012.8 0.0
07/02:30pm 28.6 29.4 17.2 50 7.2 S 9 13 5 7 1013.1 1013.1 0.0
07/02:00pm 28.3 30.0 17.2 51 7.0 SE 4 9 2 5 1013.3 1013.3 0.0
07/01:30pm 28.2 28.9 16.1 47 7.5 SE 7 13 4 7 1013.6 1013.6 0.0
07/01:00pm 29.1 30.0 16.6 46 7.8 ESE 7 17 4 9 1013.6 1013.6 0.0
07/12:30pm 29.1 30.0 16.6 46 7.8 ESE 7 13 4 7 1013.8 1013.8 0.0
07/12:00pm 27.1 27.3 16.7 53 6.5 SSE 11 19 6 10 1014.4 1014.4 0.0
07/11:30am 27.1 27.5 16.4 52 6.6 SE 9 19 5 10 1014.9 1014.9 0.0
07/11:00am 27.2 28.2 16.8 53 6.5 E 7 13 4 7 1015.2 1015.2 0.0
07/10:30am 26.1 26.6 16.6 55 5.9 ESE 9 17 5 9 1015.6 1015.6 0.0
07/10:00am 25.0 25.0 16.2 58 5.4 ESE 11 17 6 9 1015.7 1015.7 0.0
07/09:30am 24.2 24.3 16.5 62 4.7 E 11 19 6 10 1015.4 1015.4 0.0
07/09:00am 22.9 23.0 16.4 67 4.0 ENE 11 19 6 10 1015.3 1015.3 0.0
07/08:30am 21.5 21.6 16.5 73 3.0 ENE 11 17 6 9 1015.4 1015.4 0.0
07/08:00am 20.6 21.5 16.6 78 2.4 ESE 7 15 4 8 1015.4 1015.4 0.0
07/07:30am 20.0 20.9 16.6 81 2.1 ESE 7 13 4 7 1015.4 1015.4 0.0
07/07:00am 19.6 20.8 16.8 84 1.7 SE 6 7 3 4 1015.4 1015.4 0.0
07/06:30am 19.4 20.9 16.6 84 1.7 SE 4 6 2 3 1015.1 1015.1 0.0
07/06:00am 19.6 21.2 16.8 84 1.7 SE 4 6 2 3 1014.7 1014.7 0.0
07/05:30am 19.8 21.0 16.8 83 1.8 SE 6 9 3 5 1014.3 1014.3 0.0
07/05:00am 20.1 21.1 16.9 82 1.9 SE 7 11 4 6 1014.2 1014.2 0.0
07/04:30am 20.2 21.3 17.0 82 1.9 SE 7 9 4 5 1014.1 1014.1 0.0
07/04:00am 20.4 21.5 17.2 82 2.0 SE 7 9 4 5 1013.9 1013.9 0.0
07/03:30am 20.7 22.1 17.3 81 2.1 SE 6 7 3 4 1013.7 1013.7 0.0
07/03:00am 21.0 22.1 17.2 79 2.3 SE 7 11 4 6 1013.5 1013.5 0.0
07/02:30am 21.3 22.5 17.3 78 2.5 SE 7 11 4 6 1013.3 1013.3 0.0
07/02:00am 21.7 22.6 17.5 77 2.6 SE 9 13 5 7 1013.5 1013.5 0.0
07/01:30am 21.9 22.0 17.5 76 2.7 SSE 13 19 7 10 1013.5 1013.5 0.0
07/01:00am 22.0 22.3 18.0 78 2.5 SE 13 19 7 10 1013.4 1013.4 0.0
07/12:30am 22.4 22.9 18.4 78 2.5 SSE 13 19 7 10 1013.5 1013.5 0.0
07/12:00am 22.6 23.4 19.0 80 2.3 SSE 13 19 7 10 1013.6 1013.6 0.0
 
Date/Time
WST
Temp
°C
App
Temp
°C
Dew
Point
°C
Rel
Hum
%
Delta-T
°C
Wind Press
QNH
hPa
Press
MSL
hPa
Rain since
9am
mm
Dir  Spd
km/h
Gust
km/h
Spd
kts
Gust
kts
06/11:30pm 22.9 23.9 19.5 81 2.2 SSE 13 19 7 10 1013.6 1013.6 0.0
06/11:00pm 23.1 24.6 19.7 81 2.2 SSE 11 17 6 9 1013.6 1013.6 0.0
06/10:30pm 23.0 24.3 19.4 80 2.3 S 11 15 6 8 1013.8 1013.8 0.0
06/10:00pm 23.3 25.1 19.5 79 2.4 S 9 13 5 7 1013.9 1013.9 0.0
06/09:30pm 23.5 25.6 19.4 78 2.6 S 7 11 4 6 1013.9 1013.9 0.0
06/09:00pm 23.7 25.2 19.0 75 3.0 S 9 13 5 7 1013.7 1013.7 0.0
06/08:30pm 23.9 25.0 18.8 73 3.2 S 11 17 6 9 1013.6 1013.6 0.0
06/08:00pm 23.9 25.4 19.0 74 3.1 S 9 15 5 8 1013.2 1013.2 0.0
06/07:30pm 24.0 25.6 19.1 74 3.1 S 9 13 5 7 1012.9 1012.9 0.0
06/07:00pm 24.2 25.3 18.8 72 3.4 S 11 15 6 8 1012.7 1012.7 0.0
06/06:30pm 24.6 25.4 19.0 71 3.6 S 13 19 7 10 1012.6 1012.6 0.0
06/06:00pm 24.8 24.7 18.7 69 3.9 S 17 28 9 15 1012.8 1012.8 0.0
06/05:30pm 24.9 24.4 18.6 68 4.0 SSW 19 28 10 15 1012.9 1012.9 0.0
06/05:00pm 25.3 25.0 18.2 64 4.5 SSW 17 26 9 14 1012.5 1012.5 0.0
06/04:30pm 25.6 25.4 18.5 65 4.5 SW 17 26 9 14 1012.4 1012.4 0.0
06/04:00pm 25.9 26.0 18.3 63 4.8 SSW 15 22 8 12 1012.3 1012.3 0.0
06/03:30pm 25.4 25.5 18.3 65 4.5 SW 15 22 8 12 1012.3 1012.3 0.0
06/03:00pm 25.1 25.6 18.3 66 4.3 SSW 13 22 7 12 1012.6 1012.6 0.0
06/02:30pm 24.8 25.6 19.0 70 3.7 SW 13 19 7 10 1012.9 1012.9 0.0
06/02:00pm 25.0 25.4 19.1 70 3.8 WSW 15 24 8 13 1013.2 1013.2 0.0
06/01:30pm 25.9 26.2 18.8 65 4.5 WSW 15 20 8 11 1013.1 1013.1 0.0
06/01:00pm 25.7 26.7 18.6 65 4.5 S 11 17 6 9 1013.2 1013.2 0.0
06/12:30pm 25.7 27.2 19.8 70 3.8 WSW 11 19 6 10 1013.3 1013.3 0.0
06/12:00pm 25.1 25.6 19.2 70 3.8 WSW 15 20 8 11 1013.7 1013.7 0.0
06/11:30am 25.1 26.6 19.7 72 3.5 WSW 11 17 6 9 1014.0 1014.0 0.0
06/11:00am 25.0 27.4 18.9 69 3.9 SW 4 9 2 5 1014.1 1014.1 0.0
06/10:30am 24.6 27.1 19.0 71 3.6 S 4 7 2 4 1014.3 1014.3 0.0
06/10:00am 24.3 26.2 18.9 72 3.4 SSE 7 11 4 6 1014.3 1014.3 0.0
06/09:30am 23.4 25.3 18.9 76 2.9 S 7 11 4 6 1014.1 1014.1 0.0
06/09:00am 23.1 24.6 18.8 77 2.7 SSE 9 13 5 7 1014.1 1014.1 0.4
06/08:30am 22.7 24.7 19.1 80 2.3 S 7 11 4 6 1013.9 1013.9 0.4
06/08:00am 22.4 24.2 18.8 80 2.3 S 7 13 4 7 1013.7 1013.7 0.4
06/07:30am 22.2 23.7 18.8 81 2.1 SSE 9 15 5 8 1013.6 1013.6 0.4
06/07:00am 22.0 23.4 18.6 81 2.1 S 9 15 5 8 1013.6 1013.6 0.4
06/06:30am 21.8 23.6 18.2 80 2.2 S 6 7 3 4 1013.3 1013.3 0.4
06/06:00am 21.9 24.0 18.1 79 2.4 S 4 6 2 3 1012.9 1012.9 0.4
06/05:30am 22.1 23.7 17.9 77 2.6 SSE 6 9 3 5 1012.6 1012.6 0.4
06/05:00am 22.0 23.4 17.8 77 2.6 S 7 11 4 6 1012.5 1012.5 0.4
06/04:30am 22.1 23.6 18.1 78 2.5 SSE 7 11 4 6 1012.3 1012.3 0.4
06/04:00am 22.1 23.2 17.9 77 2.6 SSE 9 15 5 8 1012.2 1012.2 0.4
06/03:30am 22.3 23.1 18.1 77 2.6 S 11 17 6 9 1012.2 1012.2 0.4
06/03:00am 22.3 24.0 18.5 79 2.4 S 7 13 4 7 1012.0 1012.0 0.4
06/02:30am 22.3 24.1 18.7 80 2.3 S 7 11 4 6 1012.1 1012.1 0.4
06/02:00am 22.3 24.3 19.1 82 2.0 SSW 7 13 4 7 1012.2 1012.2 0.4
06/01:30am 22.3 24.0 19.3 83 1.9 S 9 15 5 8 1012.3 1012.3 0.4
06/01:00am 22.4 24.3 19.8 85 1.7 SSW 9 15 5 8 1012.4 1012.4 0.4
06/12:30am 22.4 24.9 19.8 85 1.7 SSW 6 9 3 5 1012.6 1012.6 0.4
06/12:00am 22.3 24.7 19.7 85 1.7 SW 6 11 3 6 1012.8 1012.8 0.4
 
Date/Time
WST
Temp
°C
App
Temp
°C
Dew
Point
°C
Rel
Hum
%
Delta-T
°C
Wind Press
QNH
hPa
Press
MSL
hPa
Rain since
9am
mm
Dir  Spd
km/h
Gust
km/h
Spd
kts
Gust
kts
05/11:30pm 22.4 24.9 19.8 85 1.7 SW 6 9 3 5 1013.0 1013.0 0.4
05/11:00pm 22.4 25.7 19.9 86 1.6 SW 2 4 1 2 1013.0 1013.0 0.4
05/10:30pm 22.3 25.2 19.8 86 1.6 WSW 4 6 2 3 1013.1 1013.1 0.4
05/10:00pm 22.2 24.6 19.6 85 1.7 WSW 6 9 3 5 1013.2 1013.2 0.4
05/09:30pm 22.3 24.6 19.5 84 1.8 WSW 6 9 3 5 1013.3 1013.3 0.4
05/09:00pm 22.4 24.6 19.2 82 2.0 WSW 6 7 3 4 1013.2 1013.2 0.4
05/08:30pm 22.4 24.5 19.0 81 2.2 WSW 6 9 3 5 1013.2 1013.2 0.4
05/08:00pm 22.3 24.3 18.7 80 2.3 SW 6 9 3 5 1012.8 1012.8 0.4
05/07:30pm 22.4 24.4 18.8 80 2.3 SW 6 9 3 5 1012.5 1012.5 0.4
05/07:00pm 22.0 23.8 18.8 82 2.0 SW 7 11 4 6 1012.2 1012.2 0.4
05/06:30pm 22.5 23.9 19.5 83 1.9 WSW 11 17 6 9 1012.0 1012.0 0.4
05/06:00pm 22.7 24.0 19.3 81 2.2 WSW 11 17 6 9 1012.0 1012.0 0.4
05/05:30pm 23.1 23.7 19.5 80 2.3 W 15 22 8 12 1011.8 1011.8 0.4
05/05:00pm 23.5 24.5 19.4 78 2.6 WSW 13 19 7 10 1011.8 1011.8 0.4
05/04:30pm 23.4 24.8 19.5 79 2.5 W 11 17 6 9 1011.6 1011.6 0.4
05/04:00pm 23.1 25.3 20.4 85 1.8 W 9 11 5 6 1011.5 1011.5 0.4
05/03:30pm 23.1 23.7 19.5 80 2.3 W 15 24 8 13 1011.5 1011.5 0.4
05/03:00pm 23.0 23.5 20.1 84 1.9 NW 17 22 9 12 1011.4 1011.4 0.4
05/02:30pm 22.5 22.6 19.9 85 1.7 NW 19 22 10 12 1011.6 1011.6 0.4
05/02:00pm 22.0 23.0 20.3 90 1.1 NW 15 19 8 10 1011.7 1011.7 0.4
05/01:30pm 21.9 21.6 19.5 86 1.5 WNW 20 26 11 14 1011.8 1011.8 0.2
05/01:00pm 22.6 22.8 20.1 86 1.6 NNW 19 22 10 12 1011.7 1011.7 0.0
05/12:30pm 21.9 21.6 19.6 87 1.5 NW 20 26 11 14 1012.0 1012.0 0.0
05/12:00pm 22.7 20.6 18.0 75 2.9 NW 26 33 14 18 1012.0 1012.0 0.0

Other formats

Comma delimited format used in spreadsheet applications
http://www.bom.gov.au/fwo/IDW60801/IDW60801.94605.axf

JavaScript Object Notation format (JSON) in row-major order
http://www.bom.gov.au/fwo/IDW60801/IDW60801.94605.json

Data quality

Most of these data are generated automatically and are frequently updated. Quality checks on data are not normally performed. It is possible for incorrect values to appear. Refer to information at About Latest Weather Observations and please check the disclaimer before using these data.